Time,TemperatureF,DewpointF,PressureIn,WindDirection,WindDirectionDegrees,WindSpeedMPH,WindSpeedGustMPH,Humidity,HourlyPrecipIn,Conditions,Clouds,dailyrainin,SoftwareType,DateUTC
2013-01-14 00:04:00,67.0,-99.9,-100.00,South,170,2.0,8.0,-999,-99.99,,,-99.99,,2013-01-14 05:04:00,
2013-01-14 00:12:00,67.0,-99.9,-100.00,South,170,2.0,8.0,-999,-99.99,,,-99.99,,2013-01-14 05:12:00,
2013-01-14 00:22:00,67.0,-99.9,-100.00,South,170,2.0,8.0,-999,-99.99,,,-99.99,,2013-01-14 05:22:00,
2013-01-14 00:33:00,67.0,-99.9,-100.00,South,170,2.0,8.0,-999,-99.99,,,-99.99,,2013-01-14 05:33:00,
2013-01-14 00:40:00,67.0,-99.9,-100.00,SSE,160,3.0,8.0,-999,-99.99,,,-99.99,,2013-01-14 05:40:00,
2013-01-14 01:03:00,67.0,-99.9,-100.00,SSE,160,3.0,8.0,-999,-99.99,,,-99.99,,2013-01-14 06:03:00,
2013-01-14 01:12:00,67.0,-99.9,-100.00,SSE,160,3.0,8.0,-999,-99.99,,,-99.99,,2013-01-14 06:12:00,
2013-01-14 01:23:00,67.0,-99.9,-100.00,SSE,160,3.0,8.0,-999,-99.99,,,-99.99,,2013-01-14 06:23:00,
2013-01-14 01:33:00,67.0,-99.9,-100.00,SSE,160,3.0,8.0,-999,-99.99,,,-99.99,,2013-01-14 06:33:00,
2013-01-14 01:40:00,66.0,-99.9,-100.00,South,180,5.0,9.0,-999,-99.99,,,-99.99,,2013-01-14 06:40:00,
2013-01-14 02:02:00,66.0,-99.9,-100.00,South,180,5.0,9.0,-999,-99.99,,,-99.99,,2013-01-14 07:02:00,
2013-01-14 02:12:00,66.0,-99.9,-100.00,South,180,5.0,9.0,-999,-99.99,,,-99.99,,2013-01-14 07:12:00,
2013-01-14 02:23:00,66.0,-99.9,-100.00,South,180,5.0,9.0,-999,-99.99,,,-99.99,,2013-01-14 07:23:00,
2013-01-14 02:33:00,66.0,-99.9,-100.00,South,180,5.0,9.0,-999,-99.99,,,-99.99,,2013-01-14 07:33:00,
2013-01-14 02:40:00,65.0,-99.9,-100.00,SE,140,3.0,8.0,-999,-99.99,,,-99.99,,2013-01-14 07:40:00,
2013-01-14 03:02:00,65.0,-99.9,-100.00,SE,140,3.0,8.0,-999,-99.99,,,-99.99,,2013-01-14 08:02:00,
2013-01-14 03:12:00,65.0,-99.9,-100.00,SE,140,3.0,8.0,-999,-99.99,,,-99.99,,2013-01-14 08:12:00,
2013-01-14 03:22:00,65.0,-99.9,-100.00,SE,140,3.0,8.0,-999,-99.99,,,-99.99,,2013-01-14 08:22:00,
2013-01-14 03:33:00,65.0,-99.9,-100.00,SE,140,3.0,8.0,-999,-99.99,,,-99.99,,2013-01-14 08:33:00,
2013-01-14 03:40:00,65.0,-99.9,-100.00,South,170,3.0,10.0,-999,-99.99,,,-99.99,,2013-01-14 08:40:00,
2013-01-14 04:03:00,65.0,-99.9,-100.00,South,170,3.0,10.0,-999,-99.99,,,-99.99,,2013-01-14 09:03:00,
2013-01-14 04:12:00,65.0,-99.9,-100.00,South,170,3.0,10.0,-999,-99.99,,,-99.99,,2013-01-14 09:12:00,
2013-01-14 04:23:00,65.0,-99.9,-100.00,South,170,3.0,10.0,-999,-99.99,,,-99.99,,2013-01-14 09:23:00,
2013-01-14 04:34:00,65.0,-99.9,-100.00,South,170,3.0,10.0,-999,-99.99,,,-99.99,,2013-01-14 09:34:00,
2013-01-14 04:40:00,64.0,-99.9,-100.00,South,180,3.0,7.0,-999,-99.99,,,-99.99,,2013-01-14 09:40:00,
2013-01-14 05:03:00,64.0,-99.9,-100.00,South,180,3.0,7.0,-999,-99.99,,,-99.99,,2013-01-14 10:03:00,
2013-01-14 05:12:00,64.0,-99.9,-100.00,South,180,3.0,7.0,-999,-99.99,,,-99.99,,2013-01-14 10:12:00,
2013-01-14 05:23:00,64.0,-99.9,-100.00,South,180,3.0,7.0,-999,-99.99,,,-99.99,,2013-01-14 10:23:00,
2013-01-14 05:33:00,64.0,-99.9,-100.00,South,180,3.0,7.0,-999,-99.99,,,-99.99,,2013-01-14 10:33:00,
2013-01-14 05:40:00,63.0,-99.9,-100.00,South,180,3.0,11.0,-999,-99.99,,,-99.99,,2013-01-14 10:40:00,
2013-01-14 06:02:00,63.0,-99.9,-100.00,South,180,3.0,11.0,-999,-99.99,,,-99.99,,2013-01-14 11:02:00,
2013-01-14 06:12:00,63.0,-99.9,-100.00,South,180,3.0,11.0,-999,-99.99,,,-99.99,,2013-01-14 11:12:00,
2013-01-14 06:23:00,63.0,-99.9,-100.00,South,180,3.0,11.0,-999,-99.99,,,-99.99,,2013-01-14 11:23:00,
2013-01-14 06:33:00,63.0,-99.9,-100.00,South,180,3.0,11.0,-999,-99.99,,,-99.99,,2013-01-14 11:33:00,
2013-01-14 06:40:00,63.0,-99.9,-100.00,South,180,3.0,8.0,-999,-99.99,,,-99.99,,2013-01-14 11:40:00,
2013-01-14 07:03:00,63.0,-99.9,-100.00,South,180,3.0,8.0,-999,-99.99,,,-99.99,,2013-01-14 12:03:00,
2013-01-14 07:12:00,63.0,-99.9,-100.00,South,180,3.0,8.0,-999,-99.99,,,-99.99,,2013-01-14 12:12:00,
2013-01-14 07:23:00,63.0,-99.9,-100.00,South,180,3.0,8.0,-999,-99.99,,,-99.99,,2013-01-14 12:23:00,
2013-01-14 07:33:00,63.0,-99.9,-100.00,South,180,3.0,8.0,-999,-99.99,,,-99.99,,2013-01-14 12:33:00,
2013-01-14 07:40:00,63.0,-99.9,-100.00,South,190,3.0,8.0,-999,-99.99,,,-99.99,,2013-01-14 12:40:00,
2013-01-14 08:03:00,63.0,-99.9,-100.00,South,190,3.0,8.0,-999,-99.99,,,-99.99,,2013-01-14 13:03:00,
2013-01-14 08:13:00,63.0,-99.9,-100.00,South,190,3.0,8.0,-999,-99.99,,,-99.99,,2013-01-14 13:13:00,
2013-01-14 08:23:00,63.0,-99.9,-100.00,South,190,3.0,8.0,-999,-99.99,,,-99.99,,2013-01-14 13:23:00,
2013-01-14 08:34:00,63.0,-99.9,-100.00,South,190,3.0,8.0,-999,-99.99,,,-99.99,,2013-01-14 13:34:00,
2013-01-14 08:40:00,63.0,-99.9,-100.00,SSE,150,3.0,8.0,-999,-99.99,,,-99.99,,2013-01-14 13:40:00,
2013-01-14 09:03:00,63.0,-99.9,-100.00,SSE,150,3.0,8.0,-999,-99.99,,,-99.99,,2013-01-14 14:03:00,
2013-01-14 09:13:00,63.0,-99.9,-100.00,SSE,150,3.0,8.0,-999,-99.99,,,-99.99,,2013-01-14 14:13:00,
2013-01-14 09:23:00,63.0,-99.9,-100.00,SSE,150,3.0,8.0,-999,-99.99,,,-99.99,,2013-01-14 14:23:00,
2013-01-14 09:33:00,63.0,-99.9,-100.00,SSE,150,3.0,8.0,-999,-99.99,,,-99.99,,2013-01-14 14:33:00,
2013-01-14 09:40:00,66.0,-99.9,-100.00,South,190,2.0,10.0,-999,-99.99,,,-99.99,,2013-01-14 14:40:00,
2013-01-14 10:04:00,66.0,-99.9,-100.00,South,190,2.0,10.0,-999,-99.99,,,-99.99,,2013-01-14 15:04:00,
2013-01-14 10:12:00,66.0,-99.9,-100.00,South,190,2.0,10.0,-999,-99.99,,,-99.99,,2013-01-14 15:12:00,
2013-01-14 10:24:00,66.0,-99.9,-100.00,South,190,2.0,10.0,-999,-99.99,,,-99.99,,2013-01-14 15:24:00,
2013-01-14 10:34:00,66.0,-99.9,-100.00,South,190,2.0,10.0,-999,-99.99,,,-99.99,,2013-01-14 15:34:00,
2013-01-14 10:40:00,69.0,-99.9,-100.00,South,170,1.0,8.0,-999,-99.99,,,-99.99,,2013-01-14 15:40:00,
2013-01-14 11:03:00,69.0,-99.9,-100.00,South,170,1.0,8.0,-999,-99.99,,,-99.99,,2013-01-14 16:03:00,
2013-01-14 11:13:00,69.0,-99.9,-100.00,South,170,1.0,8.0,-999,-99.99,,,-99.99,,2013-01-14 16:13:00,
2013-01-14 11:23:00,69.0,-99.9,-100.00,South,170,1.0,8.0,-999,-99.99,,,-99.99,,2013-01-14 16:23:00,
2013-01-14 11:33:00,69.0,-99.9,-100.00,South,170,1.0,8.0,-999,-99.99,,,-99.99,,2013-01-14 16:33:00,
2013-01-14 11:40:00,74.0,-99.9,-100.00,WSW,240,7.0,15.0,-999,-99.99,,,-99.99,,2013-01-14 16:40:00,
2013-01-14 12:03:00,74.0,-99.9,-100.00,WSW,240,7.0,15.0,-999,-99.99,,,-99.99,,2013-01-14 17:03:00,
2013-01-14 12:12:00,74.0,-99.9,-100.00,WSW,240,7.0,15.0,-999,-99.99,,,-99.99,,2013-01-14 17:12:00,
2013-01-14 12:23:00,74.0,-99.9,-100.00,WSW,240,7.0,15.0,-999,-99.99,,,-99.99,,2013-01-14 17:23:00,
2013-01-14 12:34:00,74.0,-99.9,-100.00,WSW,240,7.0,15.0,-999,-99.99,,,-99.99,,2013-01-14 17:34:00,
2013-01-14 12:40:00,74.0,-99.9,-100.00,North,10,1.0,11.0,-999,-99.99,,,-99.99,,2013-01-14 17:40:00,
2013-01-14 13:03:00,74.0,-99.9,-100.00,North,10,1.0,11.0,-999,-99.99,,,-99.99,,2013-01-14 18:03:00,
2013-01-14 13:13:00,74.0,-99.9,-100.00,North,10,1.0,11.0,-999,-99.99,,,-99.99,,2013-01-14 18:13:00,
2013-01-14 13:23:00,74.0,-99.9,-100.00,North,10,1.0,11.0,-999,-99.99,,,-99.99,,2013-01-14 18:23:00,
2013-01-14 13:33:00,74.0,-99.9,-100.00,North,10,1.0,11.0,-999,-99.99,,,-99.99,,2013-01-14 18:33:00,
2013-01-14 13:40:00,76.0,-99.9,-100.00,ESE,120,3.0,15.0,-999,-99.99,,,-99.99,,2013-01-14 18:40:00,
2013-01-14 14:03:00,76.0,-99.9,-100.00,ESE,120,3.0,15.0,-999,-99.99,,,-99.99,,2013-01-14 19:03:00,
2013-01-14 14:13:00,76.0,-99.9,-100.00,ESE,120,3.0,15.0,-999,-99.99,,,-99.99,,2013-01-14 19:13:00,
2013-01-14 14:22:00,76.0,-99.9,-100.00,ESE,120,3.0,15.0,-999,-99.99,,,-99.99,,2013-01-14 19:22:00,
2013-01-14 14:33:00,76.0,-99.9,-100.00,ESE,120,3.0,15.0,-999,-99.99,,,-99.99,,2013-01-14 19:33:00,
2013-01-14 14:40:00,76.0,-99.9,-100.00,NNE,30,2.0,22.0,-999,-99.99,,,-99.99,,2013-01-14 19:40:00,
2013-01-14 15:04:00,76.0,-99.9,-100.00,NNE,30,2.0,22.0,-999,-99.99,,,-99.99,,2013-01-14 20:04:00,
2013-01-14 15:13:00,76.0,-99.9,-100.00,NNE,30,2.0,22.0,-999,-99.99,,,-99.99,,2013-01-14 20:13:00,
2013-01-14 15:23:00,76.0,-99.9,-100.00,NNE,30,2.0,22.0,-999,-99.99,,,-99.99,,2013-01-14 20:23:00,
2013-01-14 15:34:00,76.0,-99.9,-100.00,NNE,30,2.0,22.0,-999,-99.99,,,-99.99,,2013-01-14 20:34:00,
2013-01-14 15:40:00,76.0,-99.9,-100.00,South,170,2.0,8.0,-999,-99.99,,,-99.99,,2013-01-14 20:40:00,
2013-01-14 16:03:00,76.0,-99.9,-100.00,South,170,2.0,8.0,-999,-99.99,,,-99.99,,2013-01-14 21:03:00,
2013-01-14 16:13:00,76.0,-99.9,-100.00,South,170,2.0,8.0,-999,-99.99,,,-99.99,,2013-01-14 21:13:00,
2013-01-14 16:23:00,76.0,-99.9,-100.00,South,170,2.0,8.0,-999,-99.99,,,-99.99,,2013-01-14 21:23:00,
2013-01-14 16:33:00,76.0,-99.9,-100.00,South,170,2.0,8.0,-999,-99.99,,,-99.99,,2013-01-14 21:33:00,
2013-01-14 16:40:00,76.0,-99.9,-100.00,East,100,1.0,14.0,-999,-99.99,,,-99.99,,2013-01-14 21:40:00,
2013-01-14 17:03:00,76.0,-99.9,-100.00,East,100,1.0,14.0,-999,-99.99,,,-99.99,,2013-01-14 22:03:00,
2013-01-14 17:13:00,76.0,-99.9,-100.00,East,100,1.0,14.0,-999,-99.99,,,-99.99,,2013-01-14 22:13:00,
2013-01-14 17:23:00,76.0,-99.9,-100.00,East,100,1.0,14.0,-999,-99.99,,,-99.99,,2013-01-14 22:23:00,
2013-01-14 17:33:00,76.0,-99.9,-100.00,East,100,1.0,14.0,-999,-99.99,,,-99.99,,2013-01-14 22:33:00,
2013-01-14 17:40:00,74.0,-99.9,-100.00,SSW,210,3.0,9.0,-999,-99.99,,,-99.99,,2013-01-14 22:40:00,
2013-01-14 18:03:00,74.0,-99.9,-100.00,SSW,210,3.0,9.0,-999,-99.99,,,-99.99,,2013-01-14 23:03:00,
2013-01-14 18:12:00,74.0,-99.9,-100.00,SSW,210,3.0,9.0,-999,-99.99,,,-99.99,,2013-01-14 23:12:00,
2013-01-14 18:23:00,74.0,-99.9,-100.00,SSW,210,3.0,9.0,-999,-99.99,,,-99.99,,2013-01-14 23:23:00,
2013-01-14 18:33:00,74.0,-99.9,-100.00,SSW,210,3.0,9.0,-999,-99.99,,,-99.99,,2013-01-14 23:33:00,
2013-01-14 18:40:00,72.0,-99.9,-100.00,SSE,160,3.0,6.0,-999,-99.99,,,-99.99,,2013-01-14 23:40:00,
2013-01-14 19:03:00,72.0,-99.9,-100.00,SSE,160,3.0,6.0,-999,-99.99,,,-99.99,,2013-01-15 00:03:00,
2013-01-14 19:12:00,72.0,-99.9,-100.00,SSE,160,3.0,6.0,-999,-99.99,,,-99.99,,2013-01-15 00:12:00,
2013-01-14 19:23:00,72.0,-99.9,-100.00,SSE,160,3.0,6.0,-999,-99.99,,,-99.99,,2013-01-15 00:23:00,
2013-01-14 19:33:00,72.0,-99.9,-100.00,SSE,160,3.0,6.0,-999,-99.99,,,-99.99,,2013-01-15 00:33:00,
2013-01-14 19:40:00,70.0,-99.9,-100.00,South,180,3.0,3.0,-999,-99.99,,,-99.99,,2013-01-15 00:40:00,
2013-01-14 20:02:00,70.0,-99.9,-100.00,South,180,3.0,3.0,-999,-99.99,,,-99.99,,2013-01-15 01:02:00,
2013-01-14 20:12:00,70.0,-99.9,-100.00,South,180,3.0,3.0,-999,-99.99,,,-99.99,,2013-01-15 01:12:00,
2013-01-14 20:23:00,70.0,-99.9,-100.00,South,180,3.0,3.0,-999,-99.99,,,-99.99,,2013-01-15 01:23:00,
2013-01-14 20:33:00,70.0,-99.9,-100.00,South,180,3.0,3.0,-999,-99.99,,,-99.99,,2013-01-15 01:33:00,
2013-01-14 20:40:00,68.0,-99.9,-100.00,South,180,3.0,7.0,-999,-99.99,,,-99.99,,2013-01-15 01:40:00,
2013-01-14 21:03:00,68.0,-99.9,-100.00,South,180,3.0,7.0,-999,-99.99,,,-99.99,,2013-01-15 02:03:00,
2013-01-14 21:12:00,68.0,-99.9,-100.00,South,180,3.0,7.0,-999,-99.99,,,-99.99,,2013-01-15 02:12:00,
2013-01-14 21:23:00,68.0,-99.9,-100.00,South,180,3.0,7.0,-999,-99.99,,,-99.99,,2013-01-15 02:23:00,
2013-01-14 21:33:00,68.0,-99.9,-100.00,South,180,3.0,7.0,-999,-99.99,,,-99.99,,2013-01-15 02:33:00,
2013-01-14 21:40:00,66.0,-99.9,-100.00,SSE,160,3.0,6.0,-999,-99.99,,,-99.99,,2013-01-15 02:40:00,
2013-01-14 22:03:00,66.0,-99.9,-100.00,SSE,160,3.0,6.0,-999,-99.99,,,-99.99,,2013-01-15 03:03:00,
2013-01-14 22:12:00,66.0,-99.9,-100.00,SSE,160,3.0,6.0,-999,-99.99,,,-99.99,,2013-01-15 03:12:00,
2013-01-14 22:22:00,66.0,-99.9,-100.00,SSE,160,3.0,6.0,-999,-99.99,,,-99.99,,2013-01-15 03:22:00,
2013-01-14 22:33:00,66.0,-99.9,-100.00,SSE,160,3.0,6.0,-999,-99.99,,,-99.99,,2013-01-15 03:33:00,
2013-01-14 22:40:00,66.0,-99.9,-100.00,SSE,150,5.0,8.0,-999,-99.99,,,-99.99,,2013-01-15 03:40:00,
2013-01-14 23:03:00,66.0,-99.9,-100.00,SSE,150,5.0,8.0,-999,-99.99,,,-99.99,,2013-01-15 04:03:00,
2013-01-14 23:12:00,66.0,-99.9,-100.00,SSE,150,5.0,8.0,-999,-99.99,,,-99.99,,2013-01-15 04:12:00,
2013-01-14 23:22:00,66.0,-99.9,-100.00,SSE,150,5.0,8.0,-999,-99.99,,,-99.99,,2013-01-15 04:22:00,
2013-01-14 23:33:00,66.0,-99.9,-100.00,SSE,150,5.0,8.0,-999,-99.99,,,-99.99,,2013-01-15 04:33:00,
2013-01-14 23:40:00,66.0,-99.9,-100.00,SSE,150,3.0,6.0,-999,-99.99,,,-99.99,,2013-01-15 04:40:00,